sensor_id;sensor_type;location;lat;lon;timestamp;temperature;humidity
8939;DHT22;4504;48.810;9.172;2023-06-10T00:01:16;19.10;91.90
8939;DHT22;4504;48.810;9.172;2023-06-10T00:03:43;19.10;91.60
8939;DHT22;4504;48.810;9.172;2023-06-10T00:06:10;19.10;91.70
8939;DHT22;4504;48.810;9.172;2023-06-10T00:08:37;19.10;91.90
8939;DHT22;4504;48.810;9.172;2023-06-10T00:11:05;19.10;92.30
8939;DHT22;4504;48.810;9.172;2023-06-10T00:13:33;19.10;92.30
8939;DHT22;4504;48.810;9.172;2023-06-10T00:16:01;19.10;92.50
8939;DHT22;4504;48.810;9.172;2023-06-10T00:18:29;19.10;92.80
8939;DHT22;4504;48.810;9.172;2023-06-10T00:20:57;19.10;92.70
8939;DHT22;4504;48.810;9.172;2023-06-10T00:23:28;19.10;92.50
8939;DHT22;4504;48.810;9.172;2023-06-10T00:25:56;19.10;92.60
8939;DHT22;4504;48.810;9.172;2023-06-10T00:28:23;19.20;93.00
8939;DHT22;4504;48.810;9.172;2023-06-10T00:30:52;19.20;93.00
8939;DHT22;4504;48.810;9.172;2023-06-10T00:33:19;19.20;93.20
8939;DHT22;4504;48.810;9.172;2023-06-10T00:35:46;19.20;92.90
8939;DHT22;4504;48.810;9.172;2023-06-10T00:38:13;19.10;93.50
8939;DHT22;4504;48.810;9.172;2023-06-10T00:40:42;19.10;94.00
8939;DHT22;4504;48.810;9.172;2023-06-10T00:43:09;19.10;94.30
8939;DHT22;4504;48.810;9.172;2023-06-10T00:45:36;19.10;94.40
8939;DHT22;4504;48.810;9.172;2023-06-10T00:48:05;19.10;94.60
8939;DHT22;4504;48.810;9.172;2023-06-10T00:50:32;19.00;94.40
8939;DHT22;4504;48.810;9.172;2023-06-10T00:53:00;18.90;94.70
8939;DHT22;4504;48.810;9.172;2023-06-10T00:55:29;18.90;94.90
8939;DHT22;4504;48.810;9.172;2023-06-10T00:57:57;18.80;95.30
8939;DHT22;4504;48.810;9.172;2023-06-10T01:00:25;18.70;95.80
8939;DHT22;4504;48.810;9.172;2023-06-10T01:02:52;18.60;95.80
8939;DHT22;4504;48.810;9.172;2023-06-10T01:05:20;18.60;95.70
8939;DHT22;4504;48.810;9.172;2023-06-10T01:07:56;18.60;96.70
8939;DHT22;4504;48.810;9.172;2023-06-10T01:10:32;18.60;96.20
8939;DHT22;4504;48.810;9.172;2023-06-10T01:13:01;18.50;97.10
8939;DHT22;4504;48.810;9.172;2023-06-10T01:15:30;18.50;97.20
8939;DHT22;4504;48.810;9.172;2023-06-10T01:17:58;18.50;97.90
8939;DHT22;4504;48.810;9.172;2023-06-10T01:20:31;18.40;97.80
8939;DHT22;4504;48.810;9.172;2023-06-10T01:23:01;18.40;97.10
8939;DHT22;4504;48.810;9.172;2023-06-10T01:25:30;18.40;97.70
8939;DHT22;4504;48.810;9.172;2023-06-10T01:28:03;18.40;98.00
8939;DHT22;4504;48.810;9.172;2023-06-10T01:30:36;18.40;97.70
8939;DHT22;4504;48.810;9.172;2023-06-10T01:33:09;18.40;97.50
8939;DHT22;4504;48.810;9.172;2023-06-10T01:35:37;18.40;97.50
8939;DHT22;4504;48.810;9.172;2023-06-10T01:38:07;18.40;97.40
8939;DHT22;4504;48.810;9.172;2023-06-10T01:40:34;18.40;98.10
8939;DHT22;4504;48.810;9.172;2023-06-10T01:43:01;18.50;98.50
8939;DHT22;4504;48.810;9.172;2023-06-10T01:45:28;18.40;98.30
8939;DHT22;4504;48.810;9.172;2023-06-10T01:47:55;18.30;98.70
8939;DHT22;4504;48.810;9.172;2023-06-10T01:50:22;18.20;99.20
8939;DHT22;4504;48.810;9.172;2023-06-10T01:52:50;18.20;99.90
8939;DHT22;4504;48.810;9.172;2023-06-10T01:55:19;18.20;99.90
8939;DHT22;4504;48.810;9.172;2023-06-10T01:57:46;18.10;99.90
8939;DHT22;4504;48.810;9.172;2023-06-10T02:00:14;18.20;99.90
8939;DHT22;4504;48.810;9.172;2023-06-10T02:02:41;18.20;99.80
8939;DHT22;4504;48.810;9.172;2023-06-10T02:05:08;18.10;99.50
8939;DHT22;4504;48.810;9.172;2023-06-10T02:07:35;18.00;99.80
8939;DHT22;4504;48.810;9.172;2023-06-10T02:10:04;18.00;99.90
8939;DHT22;4504;48.810;9.172;2023-06-10T02:12:33;17.90;99.90
8939;DHT22;4504;48.810;9.172;2023-06-10T02:15:00;17.90;99.90
8939;DHT22;4504;48.810;9.172;2023-06-10T02:17:27;17.80;99.90
8939;DHT22;4504;48.810;9.172;2023-06-10T02:19:54;17.70;99.90
8939;DHT22;4504;48.810;9.172;2023-06-10T02:22:23;17.60;99.90
8939;DHT22;4504;48.810;9.172;2023-06-10T02:24:50;17.50;99.90
8939;DHT22;4504;48.810;9.172;2023-06-10T02:27:18;17.50;99.90
8939;DHT22;4504;48.810;9.172;2023-06-10T02:29:46;17.50;99.90
8939;DHT22;4504;48.810;9.172;2023-06-10T02:32:13;17.40;99.90
8939;DHT22;4504;48.810;9.172;2023-06-10T02:34:42;17.30;99.90
8939;DHT22;4504;48.810;9.172;2023-06-10T02:37:09;17.20;99.90
8939;DHT22;4504;48.810;9.172;2023-06-10T02:39:36;17.30;99.90
8939;DHT22;4504;48.810;9.172;2023-06-10T02:42:07;17.30;99.90
8939;DHT22;4504;48.810;9.172;2023-06-10T02:44:34;17.30;99.90
8939;DHT22;4504;48.810;9.172;2023-06-10T02:47:04;17.30;99.90
8939;DHT22;4504;48.810;9.172;2023-06-10T02:49:33;17.30;99.90
8939;DHT22;4504;48.810;9.172;2023-06-10T02:52:01;17.30;99.90
8939;DHT22;4504;48.810;9.172;2023-06-10T02:54:28;17.20;99.90
8939;DHT22;4504;48.810;9.172;2023-06-10T02:56:56;17.10;99.90
8939;DHT22;4504;48.810;9.172;2023-06-10T02:59:25;17.00;99.90
8939;DHT22;4504;48.810;9.172;2023-06-10T03:01:54;17.00;99.90
8939;DHT22;4504;48.810;9.172;2023-06-10T03:04:24;17.00;99.90
8939;DHT22;4504;48.810;9.172;2023-06-10T03:06:59;16.90;99.90
8939;DHT22;4504;48.810;9.172;2023-06-10T03:09:31;16.90;99.90
8939;DHT22;4504;48.810;9.172;2023-06-10T03:12:00;17.00;99.90
8939;DHT22;4504;48.810;9.172;2023-06-10T03:14:30;17.00;99.90
8939;DHT22;4504;48.810;9.172;2023-06-10T03:16:57;17.00;99.90
8939;DHT22;4504;48.810;9.172;2023-06-10T03:19:26;17.10;99.90
8939;DHT22;4504;48.810;9.172;2023-06-10T03:22:07;17.00;99.90
8939;DHT22;4504;48.810;9.172;2023-06-10T03:24:37;17.00;99.90
8939;DHT22;4504;48.810;9.172;2023-06-10T03:27:07;17.10;99.90
8939;DHT22;4504;48.810;9.172;2023-06-10T03:29:36;17.10;99.90
8939;DHT22;4504;48.810;9.172;2023-06-10T03:32:05;17.20;99.90
8939;DHT22;4504;48.810;9.172;2023-06-10T03:34:35;17.20;99.90
8939;DHT22;4504;48.810;9.172;2023-06-10T03:37:02;17.20;99.90
8939;DHT22;4504;48.810;9.172;2023-06-10T03:39:30;17.10;99.90
8939;DHT22;4504;48.810;9.172;2023-06-10T03:41:59;17.10;99.90
8939;DHT22;4504;48.810;9.172;2023-06-10T03:44:27;17.10;99.90
8939;DHT22;4504;48.810;9.172;2023-06-10T03:46:55;17.00;99.90
8939;DHT22;4504;48.810;9.172;2023-06-10T03:49:24;17.10;99.90
8939;DHT22;4504;48.810;9.172;2023-06-10T03:51:54;17.10;99.90
8939;DHT22;4504;48.810;9.172;2023-06-10T03:54:22;17.00;99.90
8939;DHT22;4504;48.810;9.172;2023-06-10T03:56:49;16.70;99.90
8939;DHT22;4504;48.810;9.172;2023-06-10T03:59:16;16.80;99.90
8939;DHT22;4504;48.810;9.172;2023-06-10T04:01:43;16.90;99.90
8939;DHT22;4504;48.810;9.172;2023-06-10T04:04:14;17.00;99.90
8939;DHT22;4504;48.810;9.172;2023-06-10T04:06:42;17.00;99.90
8939;DHT22;4504;48.810;9.172;2023-06-10T04:09:11;17.00;99.90
8939;DHT22;4504;48.810;9.172;2023-06-10T04:11:39;17.00;99.90
8939;DHT22;4504;48.810;9.172;2023-06-10T04:14:07;17.00;99.90
8939;DHT22;4504;48.810;9.172;2023-06-10T04:16:34;17.00;99.90
8939;DHT22;4504;48.810;9.172;2023-06-10T04:19:02;17.20;99.90
8939;DHT22;4504;48.810;9.172;2023-06-10T04:21:29;17.10;99.90
8939;DHT22;4504;48.810;9.172;2023-06-10T04:23:56;17.10;99.90
8939;DHT22;4504;48.810;9.172;2023-06-10T04:26:25;17.20;99.90
8939;DHT22;4504;48.810;9.172;2023-06-10T04:28:53;17.30;99.90
8939;DHT22;4504;48.810;9.172;2023-06-10T04:31:20;17.30;99.90
8939;DHT22;4504;48.810;9.172;2023-06-10T04:33:47;17.40;99.90
8939;DHT22;4504;48.810;9.172;2023-06-10T04:36:15;17.30;99.90
8939;DHT22;4504;48.810;9.172;2023-06-10T04:38:41;17.30;99.90
8939;DHT22;4504;48.810;9.172;2023-06-10T04:41:09;17.20;99.90
8939;DHT22;4504;48.810;9.172;2023-06-10T04:43:38;17.10;99.90
8939;DHT22;4504;48.810;9.172;2023-06-10T04:46:05;17.20;99.90
8939;DHT22;4504;48.810;9.172;2023-06-10T04:48:32;17.20;99.90
8939;DHT22;4504;48.810;9.172;2023-06-10T04:51:01;17.30;99.90
8939;DHT22;4504;48.810;9.172;2023-06-10T04:53:28;17.40;99.90
8939;DHT22;4504;48.810;9.172;2023-06-10T04:55:56;17.50;99.90
8939;DHT22;4504;48.810;9.172;2023-06-10T04:58:23;17.60;99.90
8939;DHT22;4504;48.810;9.172;2023-06-10T05:00:51;17.60;99.90
8939;DHT22;4504;48.810;9.172;2023-06-10T05:03:18;17.70;99.90
8939;DHT22;4504;48.810;9.172;2023-06-10T05:05:45;17.70;99.90
8939;DHT22;4504;48.810;9.172;2023-06-10T05:08:12;17.70;99.90
8939;DHT22;4504;48.810;9.172;2023-06-10T05:10:39;17.70;99.90
8939;DHT22;4504;48.810;9.172;2023-06-10T05:13:06;17.80;99.90
8939;DHT22;4504;48.810;9.172;2023-06-10T05:15:33;17.80;99.90
8939;DHT22;4504;48.810;9.172;2023-06-10T05:18:01;17.80;99.90
8939;DHT22;4504;48.810;9.172;2023-06-10T05:20:29;17.80;99.90
8939;DHT22;4504;48.810;9.172;2023-06-10T05:22:56;17.90;99.90
8939;DHT22;4504;48.810;9.172;2023-06-10T05:25:23;18.00;99.90
8939;DHT22;4504;48.810;9.172;2023-06-10T05:27:50;18.00;99.90
8939;DHT22;4504;48.810;9.172;2023-06-10T05:30:17;18.10;99.90
8939;DHT22;4504;48.810;9.172;2023-06-10T05:32:44;18.20;99.90
8939;DHT22;4504;48.810;9.172;2023-06-10T05:35:13;18.30;99.90
8939;DHT22;4504;48.810;9.172;2023-06-10T05:37:40;18.40;99.90
8939;DHT22;4504;48.810;9.172;2023-06-10T05:40:08;18.50;99.90
8939;DHT22;4504;48.810;9.172;2023-06-10T05:42:35;18.60;99.90
8939;DHT22;4504;48.810;9.172;2023-06-10T05:45:02;18.60;99.90
8939;DHT22;4504;48.810;9.172;2023-06-10T05:47:30;18.70;99.90
8939;DHT22;4504;48.810;9.172;2023-06-10T05:49:57;18.80;99.90
8939;DHT22;4504;48.810;9.172;2023-06-10T05:52:25;18.80;99.90
8939;DHT22;4504;48.810;9.172;2023-06-10T05:54:52;18.90;99.90
8939;DHT22;4504;48.810;9.172;2023-06-10T05:57:20;18.90;99.90
8939;DHT22;4504;48.810;9.172;2023-06-10T05:59:47;18.90;99.90
8939;DHT22;4504;48.810;9.172;2023-06-10T06:02:13;19.00;99.90
8939;DHT22;4504;48.810;9.172;2023-06-10T06:04:40;19.10;99.90
8939;DHT22;4504;48.810;9.172;2023-06-10T06:07:07;19.10;99.90
8939;DHT22;4504;48.810;9.172;2023-06-10T06:09:36;19.10;99.90
8939;DHT22;4504;48.810;9.172;2023-06-10T06:12:03;19.20;99.90
8939;DHT22;4504;48.810;9.172;2023-06-10T06:14:31;19.20;99.90
8939;DHT22;4504;48.810;9.172;2023-06-10T06:16:58;19.30;99.90
8939;DHT22;4504;48.810;9.172;2023-06-10T06:19:25;19.40;99.90
8939;DHT22;4504;48.810;9.172;2023-06-10T06:21:52;19.50;99.90
8939;DHT22;4504;48.810;9.172;2023-06-10T06:24:19;19.50;99.90
8939;DHT22;4504;48.810;9.172;2023-06-10T06:26:47;19.50;99.90
8939;DHT22;4504;48.810;9.172;2023-06-10T06:29:14;19.60;99.90
8939;DHT22;4504;48.810;9.172;2023-06-10T06:31:41;19.60;99.90
8939;DHT22;4504;48.810;9.172;2023-06-10T06:34:08;19.60;99.90
8939;DHT22;4504;48.810;9.172;2023-06-10T06:36:35;19.70;99.90
8939;DHT22;4504;48.810;9.172;2023-06-10T06:39:02;19.70;99.90
8939;DHT22;4504;48.810;9.172;2023-06-10T06:41:29;19.70;99.90
8939;DHT22;4504;48.810;9.172;2023-06-10T06:43:58;19.70;99.90
8939;DHT22;4504;48.810;9.172;2023-06-10T06:46:29;19.80;99.90
8939;DHT22;4504;48.810;9.172;2023-06-10T06:48:56;19.90;99.90
8939;DHT22;4504;48.810;9.172;2023-06-10T06:51:23;20.00;99.90
8939;DHT22;4504;48.810;9.172;2023-06-10T06:53:50;20.10;99.90
8939;DHT22;4504;48.810;9.172;2023-06-10T06:56:20;20.20;99.90
8939;DHT22;4504;48.810;9.172;2023-06-10T06:58:48;20.20;99.90
8939;DHT22;4504;48.810;9.172;2023-06-10T07:01:16;20.30;99.90
8939;DHT22;4504;48.810;9.172;2023-06-10T07:03:43;20.30;99.90
8939;DHT22;4504;48.810;9.172;2023-06-10T07:06:10;20.40;99.90
8939;DHT22;4504;48.810;9.172;2023-06-10T07:08:37;20.40;99.90
8939;DHT22;4504;48.810;9.172;2023-06-10T07:11:04;20.40;99.90
8939;DHT22;4504;48.810;9.172;2023-06-10T07:13:31;20.50;99.90
8939;DHT22;4504;48.810;9.172;2023-06-10T07:15:59;20.60;99.90
8939;DHT22;4504;48.810;9.172;2023-06-10T07:18:27;20.60;99.90
8939;DHT22;4504;48.810;9.172;2023-06-10T07:20:54;20.70;99.90
8939;DHT22;4504;48.810;9.172;2023-06-10T07:23:21;20.70;99.90
8939;DHT22;4504;48.810;9.172;2023-06-10T07:25:48;20.70;99.90
8939;DHT22;4504;48.810;9.172;2023-06-10T07:28:15;20.80;99.90
8939;DHT22;4504;48.810;9.172;2023-06-10T07:30:42;20.70;99.90
8939;DHT22;4504;48.810;9.172;2023-06-10T07:33:08;20.80;99.90
8939;DHT22;4504;48.810;9.172;2023-06-10T07:35:37;20.90;99.80
8939;DHT22;4504;48.810;9.172;2023-06-10T07:38:04;21.00;99.70
8939;DHT22;4504;48.810;9.172;2023-06-10T07:40:31;21.00;99.70
8939;DHT22;4504;48.810;9.172;2023-06-10T07:42:58;21.10;99.90
8939;DHT22;4504;48.810;9.172;2023-06-10T07:45:25;21.10;99.90
8939;DHT22;4504;48.810;9.172;2023-06-10T07:47:52;21.20;99.40
8939;DHT22;4504;48.810;9.172;2023-06-10T07:50:19;21.30;99.40
8939;DHT22;4504;48.810;9.172;2023-06-10T07:52:47;21.30;99.40
8939;DHT22;4504;48.810;9.172;2023-06-10T07:55:14;21.30;99.40
8939;DHT22;4504;48.810;9.172;2023-06-10T07:57:41;21.30;99.70
8939;DHT22;4504;48.810;9.172;2023-06-10T08:00:09;21.40;99.60
8939;DHT22;4504;48.810;9.172;2023-06-10T08:02:39;21.40;98.60
8939;DHT22;4504;48.810;9.172;2023-06-10T08:05:07;21.50;98.40
8939;DHT22;4504;48.810;9.172;2023-06-10T08:07:34;21.60;98.60
8939;DHT22;4504;48.810;9.172;2023-06-10T08:10:03;21.80;98.00
8939;DHT22;4504;48.810;9.172;2023-06-10T08:12:30;21.80;98.30
8939;DHT22;4504;48.810;9.172;2023-06-10T08:14:57;21.80;98.30
8939;DHT22;4504;48.810;9.172;2023-06-10T08:17:24;21.90;98.30
8939;DHT22;4504;48.810;9.172;2023-06-10T08:19:51;22.00;97.90
8939;DHT22;4504;48.810;9.172;2023-06-10T08:22:18;22.00;98.60
8939;DHT22;4504;48.810;9.172;2023-06-10T08:24:45;22.00;98.00
8939;DHT22;4504;48.810;9.172;2023-06-10T08:27:13;22.00;97.60
8939;DHT22;4504;48.810;9.172;2023-06-10T08:29:40;22.00;98.00
8939;DHT22;4504;48.810;9.172;2023-06-10T08:32:07;22.10;98.00
8939;DHT22;4504;48.810;9.172;2023-06-10T08:34:35;22.20;98.30
8939;DHT22;4504;48.810;9.172;2023-06-10T08:37:02;22.20;97.80
8939;DHT22;4504;48.810;9.172;2023-06-10T08:39:29;22.20;97.20
8939;DHT22;4504;48.810;9.172;2023-06-10T08:42:04;22.30;96.90
8939;DHT22;4504;48.810;9.172;2023-06-10T08:44:40;22.40;97.20
8939;DHT22;4504;48.810;9.172;2023-06-10T08:47:12;22.50;98.00
8939;DHT22;4504;48.810;9.172;2023-06-10T08:49:43;22.60;97.40
8939;DHT22;4504;48.810;9.172;2023-06-10T08:52:14;22.70;97.40
8939;DHT22;4504;48.810;9.172;2023-06-10T08:54:43;22.70;96.90
8939;DHT22;4504;48.810;9.172;2023-06-10T08:57:10;22.70;96.80
8939;DHT22;4504;48.810;9.172;2023-06-10T08:59:39;22.80;96.70
8939;DHT22;4504;48.810;9.172;2023-06-10T09:02:08;22.90;96.60
8939;DHT22;4504;48.810;9.172;2023-06-10T09:04:36;22.90;96.20
8939;DHT22;4504;48.810;9.172;2023-06-10T09:07:04;22.90;96.20
8939;DHT22;4504;48.810;9.172;2023-06-10T09:09:32;22.90;96.80
8939;DHT22;4504;48.810;9.172;2023-06-10T09:12:00;23.00;95.60
8939;DHT22;4504;48.810;9.172;2023-06-10T09:14:27;23.00;96.00
8939;DHT22;4504;48.810;9.172;2023-06-10T09:16:55;23.00;95.70
8939;DHT22;4504;48.810;9.172;2023-06-10T09:19:23;23.20;95.20
8939;DHT22;4504;48.810;9.172;2023-06-10T09:21:51;23.40;95.10
8939;DHT22;4504;48.810;9.172;2023-06-10T09:24:18;23.30;95.20
8939;DHT22;4504;48.810;9.172;2023-06-10T09:26:45;23.30;95.20
8939;DHT22;4504;48.810;9.172;2023-06-10T09:29:12;23.30;94.90
8939;DHT22;4504;48.810;9.172;2023-06-10T09:31:40;23.40;93.90
8939;DHT22;4504;48.810;9.172;2023-06-10T09:34:10;23.50;93.20
8939;DHT22;4504;48.810;9.172;2023-06-10T09:36:38;23.60;93.70
8939;DHT22;4504;48.810;9.172;2023-06-10T09:39:13;23.70;93.20
8939;DHT22;4504;48.810;9.172;2023-06-10T09:41:41;23.80;93.70
8939;DHT22;4504;48.810;9.172;2023-06-10T09:44:11;23.80;93.80
8939;DHT22;4504;48.810;9.172;2023-06-10T09:46:39;23.70;92.60
8939;DHT22;4504;48.810;9.172;2023-06-10T09:49:06;23.70;93.20
8939;DHT22;4504;48.810;9.172;2023-06-10T09:51:34;23.70;93.70
8939;DHT22;4504;48.810;9.172;2023-06-10T09:54:02;23.70;93.40
8939;DHT22;4504;48.810;9.172;2023-06-10T09:56:33;23.70;93.00
8939;DHT22;4504;48.810;9.172;2023-06-10T09:59:01;23.80;93.30
8939;DHT22;4504;48.810;9.172;2023-06-10T10:01:30;23.80;93.70
8939;DHT22;4504;48.810;9.172;2023-06-10T10:03:59;23.80;92.70
8939;DHT22;4504;48.810;9.172;2023-06-10T10:06:27;23.80;92.40
8939;DHT22;4504;48.810;9.172;2023-06-10T10:08:56;23.80;93.10
8939;DHT22;4504;48.810;9.172;2023-06-10T10:11:24;23.90;92.00
8939;DHT22;4504;48.810;9.172;2023-06-10T10:13:52;23.90;92.10
8939;DHT22;4504;48.810;9.172;2023-06-10T10:16:21;23.90;92.10
8939;DHT22;4504;48.810;9.172;2023-06-10T10:18:54;23.90;90.80
8939;DHT22;4504;48.810;9.172;2023-06-10T10:21:24;24.20;92.20
8939;DHT22;4504;48.810;9.172;2023-06-10T10:23:56;24.20;92.30
8939;DHT22;4504;48.810;9.172;2023-06-10T10:26:26;24.10;91.40
8939;DHT22;4504;48.810;9.172;2023-06-10T10:29:03;24.20;91.80
8939;DHT22;4504;48.810;9.172;2023-06-10T10:31:33;24.40;91.50
8939;DHT22;4504;48.810;9.172;2023-06-10T10:34:06;24.50;92.60
8939;DHT22;4504;48.810;9.172;2023-06-10T10:36:34;24.50;91.90
8939;DHT22;4504;48.810;9.172;2023-06-10T10:39:04;24.50;91.30
8939;DHT22;4504;48.810;9.172;2023-06-10T10:41:33;24.30;90.60
8939;DHT22;4504;48.810;9.172;2023-06-10T10:44:01;24.20;91.20
8939;DHT22;4504;48.810;9.172;2023-06-10T10:46:41;24.30;92.20
8939;DHT22;4504;48.810;9.172;2023-06-10T10:49:09;24.60;91.30
8939;DHT22;4504;48.810;9.172;2023-06-10T10:51:37;24.80;93.00
8939;DHT22;4504;48.810;9.172;2023-06-10T10:54:11;25.20;91.40
8939;DHT22;4504;48.810;9.172;2023-06-10T10:56:40;25.40;88.70
8939;DHT22;4504;48.810;9.172;2023-06-10T10:59:43;26.20;85.60
8939;DHT22;4504;48.810;9.172;2023-06-10T11:02:14;27.20;81.20
8939;DHT22;4504;48.810;9.172;2023-06-10T11:04:44;27.70;78.90
8939;DHT22;4504;48.810;9.172;2023-06-10T11:07:12;28.30;76.70
8939;DHT22;4504;48.810;9.172;2023-06-10T11:09:57;29.30;72.90
8939;DHT22;4504;48.810;9.172;2023-06-10T11:12:33;30.60;66.80
8939;DHT22;4504;48.810;9.172;2023-06-10T11:15:06;30.40;62.00
8939;DHT22;4504;48.810;9.172;2023-06-10T11:17:33;30.60;60.40
8939;DHT22;4504;48.810;9.172;2023-06-10T11:20:00;30.40;59.90
8939;DHT22;4504;48.810;9.172;2023-06-10T11:22:27;29.40;63.30
8939;DHT22;4504;48.810;9.172;2023-06-10T11:24:54;29.90;65.50
8939;DHT22;4504;48.810;9.172;2023-06-10T11:27:26;30.10;60.00
8939;DHT22;4504;48.810;9.172;2023-06-10T11:30:19;30.00;58.90
8939;DHT22;4504;48.810;9.172;2023-06-10T11:32:51;30.60;64.70
8939;DHT22;4504;48.810;9.172;2023-06-10T11:35:19;30.90;59.00
8939;DHT22;4504;48.810;9.172;2023-06-10T11:37:47;29.80;60.80
8939;DHT22;4504;48.810;9.172;2023-06-10T11:40:15;30.70;59.00
8939;DHT22;4504;48.810;9.172;2023-06-10T11:42:44;30.40;58.40
8939;DHT22;4504;48.810;9.172;2023-06-10T11:45:15;30.70;56.60
8939;DHT22;4504;48.810;9.172;2023-06-10T11:47:55;31.30;56.30
8939;DHT22;4504;48.810;9.172;2023-06-10T11:50:28;31.70;53.50
8939;DHT22;4504;48.810;9.172;2023-06-10T11:52:55;31.20;54.20
8939;DHT22;4504;48.810;9.172;2023-06-10T11:55:24;30.90;53.60
8939;DHT22;4504;48.810;9.172;2023-06-10T11:57:53;30.10;53.70
8939;DHT22;4504;48.810;9.172;2023-06-10T12:00:23;29.70;57.90
8939;DHT22;4504;48.810;9.172;2023-06-10T12:02:56;29.00;59.40
8939;DHT22;4504;48.810;9.172;2023-06-10T12:05:23;28.40;60.10
8939;DHT22;4504;48.810;9.172;2023-06-10T12:08:08;28.30;62.40
8939;DHT22;4504;48.810;9.172;2023-06-10T12:10:40;28.90;62.50
8939;DHT22;4504;48.810;9.172;2023-06-10T12:13:09;29.20;62.40
8939;DHT22;4504;48.810;9.172;2023-06-10T12:15:36;30.60;57.20
8939;DHT22;4504;48.810;9.172;2023-06-10T12:18:03;31.40;53.50
8939;DHT22;4504;48.810;9.172;2023-06-10T12:20:32;31.90;53.10
8939;DHT22;4504;48.810;9.172;2023-06-10T12:22:59;32.50;52.20
8939;DHT22;4504;48.810;9.172;2023-06-10T12:25:28;33.30;50.80
8939;DHT22;4504;48.810;9.172;2023-06-10T12:27:56;33.90;49.00
8939;DHT22;4504;48.810;9.172;2023-06-10T12:30:26;32.90;48.20
8939;DHT22;4504;48.810;9.172;2023-06-10T12:32:53;33.60;50.40
8939;DHT22;4504;48.810;9.172;2023-06-10T12:35:22;33.90;48.50
8939;DHT22;4504;48.810;9.172;2023-06-10T12:37:57;33.60;46.70
8939;DHT22;4504;48.810;9.172;2023-06-10T12:40:29;32.90;46.90
8939;DHT22;4504;48.810;9.172;2023-06-10T12:42:57;31.10;48.50
8939;DHT22;4504;48.810;9.172;2023-06-10T12:45:30;29.90;52.10
8939;DHT22;4504;48.810;9.172;2023-06-10T12:48:08;29.10;54.30
8939;DHT22;4504;48.810;9.172;2023-06-10T12:50:35;29.10;56.10
8939;DHT22;4504;48.810;9.172;2023-06-10T12:53:05;30.50;52.60
8939;DHT22;4504;48.810;9.172;2023-06-10T12:55:32;31.60;51.10
8939;DHT22;4504;48.810;9.172;2023-06-10T12:58:00;32.50;48.40
8939;DHT22;4504;48.810;9.172;2023-06-10T13:00:29;32.50;48.70
8939;DHT22;4504;48.810;9.172;2023-06-10T13:03:00;31.90;49.60
8939;DHT22;4504;48.810;9.172;2023-06-10T13:05:27;31.00;50.00
8939;DHT22;4504;48.810;9.172;2023-06-10T13:07:55;29.80;53.10
8939;DHT22;4504;48.810;9.172;2023-06-10T13:10:22;29.10;55.30
8939;DHT22;4504;48.810;9.172;2023-06-10T13:12:49;28.50;57.20
8939;DHT22;4504;48.810;9.172;2023-06-10T13:15:16;28.30;58.00
8939;DHT22;4504;48.810;9.172;2023-06-10T13:17:45;28.30;59.40
8939;DHT22;4504;48.810;9.172;2023-06-10T13:20:14;27.60;58.60
8939;DHT22;4504;48.810;9.172;2023-06-10T13:22:42;27.50;60.00
8939;DHT22;4504;48.810;9.172;2023-06-10T13:25:09;29.00;62.80
8939;DHT22;4504;48.810;9.172;2023-06-10T13:27:36;30.30;53.80
8939;DHT22;4504;48.810;9.172;2023-06-10T13:30:05;31.50;52.40
8939;DHT22;4504;48.810;9.172;2023-06-10T13:32:32;32.30;51.00
8939;DHT22;4504;48.810;9.172;2023-06-10T13:35:01;33.30;50.90
8939;DHT22;4504;48.810;9.172;2023-06-10T13:37:28;33.70;48.00
8939;DHT22;4504;48.810;9.172;2023-06-10T13:39:55;34.60;44.80
8939;DHT22;4504;48.810;9.172;2023-06-10T13:42:23;34.90;44.20
8939;DHT22;4504;48.810;9.172;2023-06-10T13:44:51;34.90;42.40
8939;DHT22;4504;48.810;9.172;2023-06-10T13:47:18;33.70;42.40
8939;DHT22;4504;48.810;9.172;2023-06-10T13:49:46;32.70;45.60
8939;DHT22;4504;48.810;9.172;2023-06-10T13:52:14;31.70;46.80
8939;DHT22;4504;48.810;9.172;2023-06-10T13:54:41;30.60;48.50
8939;DHT22;4504;48.810;9.172;2023-06-10T13:57:08;29.70;50.70
8939;DHT22;4504;48.810;9.172;2023-06-10T13:59:36;29.20;51.90
8939;DHT22;4504;48.810;9.172;2023-06-10T14:02:03;29.30;52.30
8939;DHT22;4504;48.810;9.172;2023-06-10T14:04:30;30.00;51.20
8939;DHT22;4504;48.810;9.172;2023-06-10T14:06:58;30.40;52.30
8939;DHT22;4504;48.810;9.172;2023-06-10T14:09:26;30.50;52.80
8939;DHT22;4504;48.810;9.172;2023-06-10T14:11:53;31.10;48.00
8939;DHT22;4504;48.810;9.172;2023-06-10T14:14:20;31.80;50.30
8939;DHT22;4504;48.810;9.172;2023-06-10T14:16:48;32.70;49.20
8939;DHT22;4504;48.810;9.172;2023-06-10T14:19:15;33.50;44.50
8939;DHT22;4504;48.810;9.172;2023-06-10T14:21:42;34.10;43.70
8939;DHT22;4504;48.810;9.172;2023-06-10T14:24:08;34.60;45.60
8939;DHT22;4504;48.810;9.172;2023-06-10T14:26:37;34.60;42.80
8939;DHT22;4504;48.810;9.172;2023-06-10T14:29:04;35.10;39.90
8939;DHT22;4504;48.810;9.172;2023-06-10T14:31:31;34.40;40.20
8939;DHT22;4504;48.810;9.172;2023-06-10T14:33:57;33.20;43.60
8939;DHT22;4504;48.810;9.172;2023-06-10T14:36:25;33.00;44.40
8939;DHT22;4504;48.810;9.172;2023-06-10T14:38:52;33.40;46.00
8939;DHT22;4504;48.810;9.172;2023-06-10T14:41:19;33.60;42.60
8939;DHT22;4504;48.810;9.172;2023-06-10T14:43:49;32.80;43.10
8939;DHT22;4504;48.810;9.172;2023-06-10T14:46:16;31.40;47.30
8939;DHT22;4504;48.810;9.172;2023-06-10T14:48:43;30.40;50.30
8939;DHT22;4504;48.810;9.172;2023-06-10T14:51:10;29.80;51.50
8939;DHT22;4504;48.810;9.172;2023-06-10T14:53:37;29.40;50.70
8939;DHT22;4504;48.810;9.172;2023-06-10T14:56:04;28.80;52.40
8939;DHT22;4504;48.810;9.172;2023-06-10T14:58:31;28.50;52.10
8939;DHT22;4504;48.810;9.172;2023-06-10T15:01:00;29.20;50.90
8939;DHT22;4504;48.810;9.172;2023-06-10T15:03:27;30.00;50.20
8939;DHT22;4504;48.810;9.172;2023-06-10T15:05:53;30.80;48.80
8939;DHT22;4504;48.810;9.172;2023-06-10T15:08:20;31.70;48.20
8939;DHT22;4504;48.810;9.172;2023-06-10T15:10:47;32.00;47.90
8939;DHT22;4504;48.810;9.172;2023-06-10T15:13:14;32.40;48.40
8939;DHT22;4504;48.810;9.172;2023-06-10T15:15:41;32.80;47.70
8939;DHT22;4504;48.810;9.172;2023-06-10T15:18:10;32.90;47.20
8939;DHT22;4504;48.810;9.172;2023-06-10T15:20:37;32.80;47.30
8939;DHT22;4504;48.810;9.172;2023-06-10T15:23:04;33.20;46.50
8939;DHT22;4504;48.810;9.172;2023-06-10T15:25:31;33.30;44.30
8939;DHT22;4504;48.810;9.172;2023-06-10T15:27:58;33.00;44.40
8939;DHT22;4504;48.810;9.172;2023-06-10T15:30:25;33.40;46.90
8939;DHT22;4504;48.810;9.172;2023-06-10T15:32:52;32.60;43.30
8939;DHT22;4504;48.810;9.172;2023-06-10T15:35:20;33.00;46.00
8939;DHT22;4504;48.810;9.172;2023-06-10T15:37:47;32.80;44.10
8939;DHT22;4504;48.810;9.172;2023-06-10T15:40:14;33.60;44.70
8939;DHT22;4504;48.810;9.172;2023-06-10T15:42:41;34.10;43.40
8939;DHT22;4504;48.810;9.172;2023-06-10T15:45:09;33.70;42.30
8939;DHT22;4504;48.810;9.172;2023-06-10T15:47:36;33.90;44.50
8939;DHT22;4504;48.810;9.172;2023-06-10T15:50:04;34.10;42.60
8939;DHT22;4504;48.810;9.172;2023-06-10T15:52:32;33.90;41.90
8939;DHT22;4504;48.810;9.172;2023-06-10T15:54:59;33.50;43.60
8939;DHT22;4504;48.810;9.172;2023-06-10T15:57:27;33.00;42.90
8939;DHT22;4504;48.810;9.172;2023-06-10T15:59:54;32.60;44.40
8939;DHT22;4504;48.810;9.172;2023-06-10T16:02:21;32.40;44.50
8939;DHT22;4504;48.810;9.172;2023-06-10T16:04:48;32.00;44.60
8939;DHT22;4504;48.810;9.172;2023-06-10T16:07:15;31.70;44.90
8939;DHT22;4504;48.810;9.172;2023-06-10T16:09:43;31.70;45.00